Time;durP1;ratioP1;P1;durP2;ratioP2;P2;SDS_P1;SDS_P2;PMS_P1;PMS_P2;Temp;Humidity;BMP_temperature;BMP_pressure;BME280_temperature;BME280_humidity;BME280_pressure;Samples;Min_cycle;Max_cycle;Signal;HPM_P1;HPM_P2
2022/04/24 00:01:54;;;;;;;26.90;17.20;;;;;;;10.39;100.00;99525.22;4501398;31;20474;-68
2022/04/24 00:04:24;;;;;;;29.30;16.67;;;;;;;10.40;100.00;99523.44;4501412;31;20480;-68
2022/04/24 00:06:53;;;;;;;26.48;16.45;;;;;;;10.39;100.00;99519.94;4501402;31;20087;-68
2022/04/24 00:09:21;;;;;;;24.90;15.80;;;;;;;10.34;100.00;99521.81;4501299;31;20193;-67
2022/04/24 00:11:48;;;;;;;25.33;16.15;;;;;;;10.28;100.00;99514.03;4501220;31;20394;-68
2022/04/24 00:14:17;;;;;;;26.70;17.23;;;;;;;10.20;100.00;99516.84;4501199;31;20125;-68
2022/04/24 00:16:49;;;;;;;23.83;16.55;;;;;;;10.12;100.00;99507.41;4501359;31;20729;-68
2022/04/24 00:19:19;;;;;;;28.62;17.08;;;;;;;10.02;100.00;99512.87;4501602;31;20110;-68
2022/04/24 00:21:46;;;;;;;26.12;16.35;;;;;;;9.89;100.00;99497.41;4501168;31;20126;-67
2022/04/24 00:24:13;;;;;;;25.90;16.83;;;;;;;9.75;100.00;99498.63;4501274;31;20099;-68
2022/04/24 00:26:41;;;;;;;24.83;15.43;;;;;;;9.69;100.00;99487.38;4501269;31;20084;-68
2022/04/24 00:29:08;;;;;;;28.10;16.00;;;;;;;9.68;100.00;99485.59;4501198;31;20160;-68
2022/04/24 00:31:36;;;;;;;24.95;16.33;;;;;;;9.55;100.00;99470.13;4500986;31;20554;-67
2022/04/24 00:34:03;;;;;;;24.37;15.68;;;;;;;9.52;100.00;99470.19;4501050;31;20099;-68
2022/04/24 00:36:30;;;;;;;25.20;16.23;;;;;;;9.45;100.00;99473.84;4501059;31;20151;-68
2022/04/24 00:38:57;;;;;;;24.67;16.52;;;;;;;9.40;100.00;99475.72;4501104;31;20099;-68
2022/04/24 00:41:25;;;;;;;28.40;16.60;;;;;;;9.40;100.00;99480.09;4500965;31;20092;-68
2022/04/24 00:43:53;;;;;;;24.00;16.12;;;;;;;9.34;100.00;99481.09;4500970;31;20170;-67
2022/04/24 00:46:27;;;;;;;25.15;15.95;;;;;;;9.33;100.00;99480.25;4501063;31;20121;-69
2022/04/24 00:48:55;;;;;;;25.83;16.27;;;;;;;9.38;100.00;99488.03;4500988;31;20156;-69
2022/04/24 00:51:22;;;;;;;25.02;16.35;;;;;;;9.38;100.00;99482.78;4500901;31;20088;-69
2022/04/24 00:53:50;;;;;;;27.58;16.62;;;;;;;9.38;100.00;99482.78;4500896;31;20594;-69
2022/04/24 00:56:18;;;;;;;27.48;17.30;;;;;;;9.38;100.00;99468.75;4500799;31;20163;-69
2022/04/24 00:58:46;;;;;;;25.92;17.05;;;;;;;9.37;100.00;99478.41;4500688;31;20500;-70
2022/04/24 01:01:13;;;;;;;28.70;15.93;;;;;;;9.43;100.00;99490.53;4500678;31;20096;-70
2022/04/24 01:03:41;;;;;;;28.12;16.90;;;;;;;9.39;100.00;99479.22;4500769;31;20103;-70
2022/04/24 01:06:08;;;;;;;28.50;17.02;;;;;;;9.39;100.00;99478.38;4500580;31;20725;-69
2022/04/24 01:08:35;;;;;;;25.25;16.80;;;;;;;9.39;100.00;99481.88;4500732;31;20133;-70
2022/04/24 01:11:04;;;;;;;28.20;16.80;;;;;;;9.37;100.00;99486.31;4500537;31;20172;-70
2022/04/24 01:13:31;;;;;;;24.73;16.42;;;;;;;9.40;100.00;99485.34;4500497;31;20545;-69
2022/04/24 01:15:58;;;;;;;27.75;16.40;;;;;;;9.44;100.00;99476.53;4500497;31;20087;-69
2022/04/24 01:18:26;;;;;;;29.30;18.85;;;;;;;9.47;100.00;99482.59;4500362;31;20514;-69
2022/04/24 01:20:53;;;;;;;24.70;15.95;;;;;;;9.47;100.00;99479.06;4500488;31;20175;-70
2022/04/24 01:23:20;;;;;;;24.52;16.30;;;;;;;9.43;100.00;99473.00;4500374;31;20439;-69
2022/04/24 01:25:48;;;;;;;24.63;15.93;;;;;;;9.40;100.00;99475.72;4501030;31;20222;-70
2022/04/24 01:28:15;;;;;;;25.10;15.88;;;;;;;9.36;100.00;99474.03;4502491;31;20159;-70
2022/04/24 01:30:42;;;;;;;26.67;16.42;;;;;;;9.30;100.00;99468.94;4487627;31;20123;-69
2022/04/24 01:33:10;;;;;;;27.60;17.25;;;;;;;9.23;100.00;99469.97;4502467;31;20147;-69
2022/04/24 01:35:37;;;;;;;25.17;16.67;;;;;;;9.23;100.00;99460.31;4487706;31;20444;-69
2022/04/24 01:38:04;;;;;;;25.23;17.17;;;;;;;9.21;100.00;99461.22;4502363;31;20507;-70
2022/04/24 01:40:31;;;;;;;23.87;15.65;;;;;;;9.16;100.00;99456.09;4502424;31;20163;-70
2022/04/24 01:42:59;;;;;;;24.37;15.95;;;;;;;9.16;100.00;99450.81;4502426;31;20482;-69
2022/04/24 01:45:26;;;;;;;26.15;16.00;;;;;;;9.19;100.00;99456.03;4502355;31;20119;-69
2022/04/24 01:47:53;;;;;;;26.77;16.70;;;;;;;9.23;100.00;99451.56;4502396;31;20138;-69
2022/04/24 01:50:21;;;;;;;25.50;15.55;;;;;;;9.27;100.00;99437.44;4502332;31;20179;-70
2022/04/24 01:52:48;;;;;;;25.35;16.17;;;;;;;9.17;100.00;99442.03;4502268;31;20163;-69
2022/04/24 01:55:15;;;;;;;23.65;15.98;;;;;;;9.17;100.00;99444.66;4502335;31;20420;-70
2022/04/24 01:57:42;;;;;;;25.88;15.57;;;;;;;9.14;100.00;99446.47;4502446;31;20807;-70
2022/04/24 02:00:10;;;;;;;27.62;16.45;;;;;;;9.17;100.00;99449.91;4502388;31;20580;-70
2022/04/24 02:02:38;;;;;;;24.17;16.33;;;;;;;9.19;100.00;99444.66;4502244;31;20523;-70
2022/04/24 02:05:06;;;;;;;26.30;16.05;;;;;;;9.27;100.00;99443.56;4502403;31;20138;-69
2022/04/24 02:07:33;;;;;;;25.85;16.48;;;;;;;9.26;100.00;99444.47;4502185;31;20135;-70
2022/04/24 02:10:00;;;;;;;27.58;16.67;;;;;;;9.28;100.00;99447.06;4502200;31;20450;-69
2022/04/24 02:12:28;;;;;;;26.02;16.27;;;;;;;9.33;100.00;99442.59;4502188;31;20095;-69
2022/04/24 02:14:55;;;;;;;25.08;16.15;;;;;;;9.32;100.00;99446.09;4502426;31;20151;-70
2022/04/24 02:17:22;;;;;;;24.37;16.35;;;;;;;9.32;100.00;99449.56;4502169;31;20096;-69
2022/04/24 02:19:49;;;;;;;23.40;16.30;;;;;;;9.37;100.00;99448.62;4502073;31;20163;-69
2022/04/24 02:22:16;;;;;;;27.00;15.90;;;;;;;9.37;100.00;99449.50;4502470;31;20103;-69
2022/04/24 02:24:44;;;;;;;24.48;15.70;;;;;;;9.40;100.00;99459.94;4502170;31;20084;-69
2022/04/24 02:27:11;;;;;;;25.70;16.10;;;;;;;9.42;100.00;99454.66;4502079;31;20481;-69
2022/04/24 02:29:38;;;;;;;21.65;15.32;;;;;;;9.39;100.00;99452.94;4502108;31;20092;-69
2022/04/24 02:32:06;;;;;;;25.25;16.25;;;;;;;9.35;100.00;99446.03;4502003;31;20095;-70
2022/04/24 02:34:33;;;;;;;24.65;14.95;;;;;;;9.42;100.00;99439.72;4487537;31;20083;-69
2022/04/24 02:37:00;;;;;;;24.30;15.45;;;;;;;9.43;100.00;99437.97;4501086;31;20164;-69
2022/04/24 02:39:27;;;;;;;23.98;14.98;;;;;;;9.44;100.00;99448.47;4501930;31;20087;-69
2022/04/24 02:41:55;;;;;;;22.67;14.95;;;;;;;9.41;100.00;99445.91;4502048;31;20091;-69
2022/04/24 02:44:22;;;;;;;23.87;14.55;;;;;;;9.43;100.00;99448.47;4501955;31;20110;-70
2022/04/24 02:46:50;;;;;;;22.05;15.02;;;;;;;9.35;100.00;99448.66;4501943;31;20088;-69
2022/04/24 02:49:18;;;;;;;22.92;15.18;;;;;;;9.35;100.00;99446.03;4501997;31;20107;-70
2022/04/24 02:51:45;;;;;;;20.98;14.13;;;;;;;9.26;100.00;99435.72;4501992;31;20092;-70
2022/04/24 02:54:13;;;;;;;21.37;14.65;;;;;;;9.17;100.00;99438.53;4501829;31;20088;-70
2022/04/24 02:56:41;;;;;;;22.37;14.57;;;;;;;9.08;100.00;99443.09;4501928;31;20573;-69
2022/04/24 02:59:08;;;;;;;24.37;14.55;;;;;;;9.04;100.00;99444.03;4501805;31;20157;-70
2022/04/24 03:01:35;;;;;;;21.58;13.90;;;;;;;9.06;100.00;99439.63;4502154;31;20438;-69
2022/04/24 03:04:03;;;;;;;22.45;14.35;;;;;;;9.09;100.00;99438.72;4501892;31;20586;-69
2022/04/24 03:06:30;;;;;;;23.65;14.73;;;;;;;9.05;100.00;99434.41;4501791;31;20175;-70
2022/04/24 03:08:58;;;;;;;22.87;15.10;;;;;;;8.95;100.00;99428.47;4501986;31;20096;-70
2022/04/24 03:11:25;;;;;;;23.85;13.75;;;;;;;8.87;100.00;99430.41;4502035;31;20315;-69
2022/04/24 03:13:52;;;;;;;25.52;15.05;;;;;;;8.86;100.00;99429.50;4501746;31;20088;-70
2022/04/24 03:16:20;;;;;;;23.15;14.75;;;;;;;8.80;100.00;99418.28;4501748;31;20088;-70
2022/04/24 03:18:47;;;;;;;23.10;14.75;;;;;;;8.74;100.00;99418.41;4501673;31;20139;-70
2022/04/24 03:21:14;;;;;;;25.70;15.43;;;;;;;8.68;100.00;99405.38;4501716;31;20141;-70
2022/04/24 03:23:41;;;;;;;25.12;15.63;;;;;;;8.64;100.00;99412.47;4501800;31;20444;-70
2022/04/24 03:26:14;;;;;;;22.83;14.90;;;;;;;8.61;100.00;99418.62;4501778;31;20136;-70
2022/04/24 03:28:44;;;;;;;26.62;15.63;;;;;;;8.67;100.00;99416.81;4501785;31;20122;-70
2022/04/24 03:31:12;;;;;;;27.67;16.48;;;;;;;8.75;100.00;99401.75;4501554;31;20096;-69
2022/04/24 03:33:39;;;;;;;27.65;15.77;;;;;;;8.79;100.00;99403.41;4501566;31;20075;-70
2022/04/24 03:36:07;;;;;;;27.90;15.52;;;;;;;8.81;100.00;99399.87;4501763;31;20139;-70
2022/04/24 03:38:34;;;;;;;23.70;15.07;;;;;;;8.89;100.00;99398.84;4501451;31;20095;-70
2022/04/24 03:41:02;;;;;;;34.95;15.40;;;;;;;8.95;100.00;99409.22;4501538;31;20166;-70
2022/04/24 03:43:29;;;;;;;21.50;14.90;;;;;;;9.01;100.00;99399.47;4501553;31;20084;-70
2022/04/24 03:45:56;;;;;;;25.00;14.50;;;;;;;9.02;100.00;99398.56;4501477;31;20451;-70
2022/04/24 03:48:24;;;;;;;26.92;15.18;;;;;;;9.01;100.00;99399.47;4501171;31;20084;-70
2022/04/24 03:50:51;;;;;;;26.30;16.00;;;;;;;9.01;100.00;99393.31;4501540;31;20450;-70
2022/04/24 03:53:18;;;;;;;25.27;15.25;;;;;;;9.01;100.00;99394.22;4501476;31;20091;-70
2022/04/24 03:55:45;;;;;;;26.30;16.27;;;;;;;9.06;100.00;99401.97;4501619;31;20194;-70
2022/04/24 03:58:15;;;;;;;28.58;15.70;;;;;;;9.06;100.00;99417.75;4501378;31;20118;-70
2022/04/24 04:00:42;;;;;;;25.98;15.50;;;;;;;9.08;100.00;99401.06;4501349;31;20556;-70
2022/04/24 04:03:10;;;;;;;22.33;15.32;;;;;;;9.05;100.00;99395.00;4501388;31;20519;-69
2022/04/24 04:05:38;;;;;;;24.27;14.77;;;;;;;9.06;100.00;99399.34;4501369;31;20448;-70
2022/04/24 04:08:05;;;;;;;23.83;14.98;;;;;;;9.16;100.00;99390.38;4501619;31;20428;-70
2022/04/24 04:10:33;;;;;;;27.95;16.35;;;;;;;9.15;100.00;99393.03;4501434;31;20374;-70
2022/04/24 04:13:04;;;;;;;22.90;14.75;;;;;;;9.15;100.00;99411.41;4501345;31;20451;-70
2022/04/24 04:15:32;;;;;;;27.15;16.30;;;;;;;9.17;100.00;99401.75;4501541;31;20083;-70
2022/04/24 04:17:59;;;;;;;23.70;15.77;;;;;;;9.18;100.00;99395.59;4501422;31;20173;-70
2022/04/24 04:20:26;;;;;;;24.92;15.70;;;;;;;9.19;100.00;99402.59;4501173;31;20092;-70
2022/04/24 04:22:55;;;;;;;25.65;15.15;;;;;;;9.16;100.00;99392.16;4486613;31;20091;-70
2022/04/24 04:25:26;;;;;;;27.67;15.40;;;;;;;9.23;100.00;99401.63;4501334;31;20114;-69
2022/04/24 04:27:53;;;;;;;28.00;16.15;;;;;;;9.34;100.00;99396.97;4486345;31;20096;-70
2022/04/24 04:30:21;;;;;;;22.02;14.80;;;;;;;9.38;100.00;99395.16;4501266;31;20174;-69
2022/04/24 04:32:48;;;;;;;29.85;16.05;;;;;;;9.33;100.00;99397.91;4500918;31;20148;-69
2022/04/24 04:35:15;;;;;;;27.62;15.43;;;;;;;9.41;100.00;99400.34;4501073;31;20095;-70
2022/04/24 04:37:43;;;;;;;24.58;15.10;;;;;;;9.39;100.00;99389.84;4501025;31;20130;-70
2022/04/24 04:40:11;;;;;;;23.10;14.60;;;;;;;9.40;100.00;99390.69;4500915;31;20155;-69
2022/04/24 04:42:38;;;;;;;27.25;16.17;;;;;;;9.35;100.00;99390.81;4501035;31;20096;-70
2022/04/24 04:45:06;;;;;;;25.92;16.58;;;;;;;9.40;100.00;99393.31;4501050;31;20091;-70
2022/04/24 04:47:34;;;;;;;28.00;16.52;;;;;;;9.35;100.00;99396.06;4501056;31;20092;-69
2022/04/24 04:50:02;;;;;;;26.05;17.10;;;;;;;9.33;100.00;99385.59;4500961;31;20111;-69
2022/04/24 04:52:34;;;;;;;27.17;17.40;;;;;;;9.33;100.00;99392.63;4500898;31;20102;-69
2022/04/24 04:55:03;;;;;;;24.73;16.75;;;;;;;9.49;100.00;99396.63;4500889;31;20087;-69
2022/04/24 04:57:30;;;;;;;23.70;15.43;;;;;;;9.75;100.00;99397.75;4500744;31;20130;-70
2022/04/24 04:59:57;;;;;;;26.25;15.88;;;;;;;9.95;100.00;99386.75;4500690;31;20170;-70
2022/04/24 05:02:25;;;;;;;26.60;16.67;;;;;;;10.12;100.00;99386.31;4502867;31;20079;-70
2022/04/24 05:04:52;;;;;;;23.38;15.07;;;;;;;10.23;100.00;99389.53;4502809;31;20095;-70
2022/04/24 05:07:19;;;;;;;30.10;16.65;;;;;;;10.29;100.00;99386.78;4502709;31;20562;-69
2022/04/24 05:09:47;;;;;;;23.70;15.80;;;;;;;10.41;100.00;99389.06;4502730;31;20522;-70
2022/04/24 05:12:14;;;;;;;23.73;15.98;;;;;;;10.56;100.00;99389.56;4502665;31;20095;-70
2022/04/24 05:14:41;;;;;;;23.15;15.80;;;;;;;10.44;100.00;99385.50;4502638;31;20472;-70
2022/04/24 05:17:09;;;;;;;24.85;16.42;;;;;;;10.42;100.00;99382.88;4502607;31;20131;-70
2022/04/24 05:19:36;;;;;;;24.20;15.50;;;;;;;10.34;100.00;99378.75;4502735;31;20150;-70
2022/04/24 05:22:04;;;;;;;27.85;16.75;;;;;;;10.41;100.00;99369.78;4502716;31;20141;-70
2022/04/24 05:24:31;;;;;;;26.55;17.00;;;;;;;10.39;100.00;99364.56;4502651;31;20095;-70
2022/04/24 05:27:01;;;;;;;28.08;16.50;;;;;;;10.49;100.00;99366.03;4502719;31;20119;-69
2022/04/24 05:29:28;;;;;;;25.35;16.00;;;;;;;10.49;100.00;99367.78;4502495;31;20163;-69
2022/04/24 05:31:56;;;;;;;23.38;15.65;;;;;;;10.51;100.00;99374.75;4502365;31;20091;-70
2022/04/24 05:34:23;;;;;;;24.27;16.17;;;;;;;10.75;100.00;99382.88;4502613;31;20131;-70
2022/04/24 05:36:50;;;;;;;28.87;16.75;;;;;;;11.15;100.00;99377.28;4502528;31;20156;-70
2022/04/24 05:39:17;;;;;;;25.05;15.65;;;;;;;11.27;100.00;99373.41;4502302;31;20091;-68
2022/04/24 05:41:44;;;;;;;26.65;16.62;;;;;;;11.47;100.00;99380.69;4502298;31;20450;-68
2022/04/24 05:44:12;;;;;;;26.08;17.27;;;;;;;11.71;99.30;99377.28;4502272;31;20092;-68
2022/04/24 05:46:39;;;;;;;25.75;16.40;;;;;;;11.75;98.29;99385.97;4502139;31;20163;-68
2022/04/24 05:49:06;;;;;;;25.37;17.10;;;;;;;11.85;97.76;99379.50;4502402;31;20129;-68
2022/04/24 05:51:38;;;;;;;26.00;16.40;;;;;;;11.95;97.01;99374.78;4502448;31;20068;-68
2022/04/24 05:54:05;;;;;;;25.67;17.08;;;;;;;12.10;95.80;99381.31;4502202;31;20183;-68
2022/04/24 05:56:32;;;;;;;23.67;16.70;;;;;;;12.05;96.58;99385.88;4502183;31;20096;-68
2022/04/24 05:58:59;;;;;;;27.52;17.55;;;;;;;12.13;95.91;99390.00;4502324;31;20121;-68
2022/04/24 06:01:26;;;;;;;28.62;17.05;;;;;;;12.17;96.27;99390.75;4502051;31;20092;-68
2022/04/24 06:03:54;;;;;;;26.85;17.02;;;;;;;12.19;95.40;99395.06;4502176;31;20112;-68
2022/04/24 06:06:21;;;;;;;28.05;17.98;;;;;;;12.11;95.72;99394.44;4502094;31;20096;-68
2022/04/24 06:08:48;;;;;;;28.25;17.27;;;;;;;12.18;95.33;99385.41;4502002;31;20507;-68
2022/04/24 06:11:17;;;;;;;29.30;17.35;;;;;;;12.10;96.50;99394.53;4501979;31;20099;-68
2022/04/24 06:13:45;;;;;;;29.65;17.02;;;;;;;12.17;95.58;99374.91;4501848;31;20096;-68
2022/04/24 06:16:12;;;;;;;30.00;17.77;;;;;;;12.31;94.93;99377.94;4502027;31;20154;-68
2022/04/24 06:18:39;;;;;;;27.42;17.58;;;;;;;12.36;95.20;99373.34;4502287;31;20162;-68
2022/04/24 06:21:07;;;;;;;28.48;18.05;;;;;;;12.37;94.98;99372.44;4501858;31;20125;-68
2022/04/24 06:23:34;;;;;;;28.27;17.67;;;;;;;12.47;94.50;99372.09;4501941;31;20122;-68
2022/04/24 06:26:02;;;;;;;24.87;16.77;;;;;;;12.69;93.25;99370.41;4502015;31;20489;-68
2022/04/24 06:28:29;;;;;;;26.67;17.65;;;;;;;13.05;92.05;99370.81;4501957;31;20505;-68
2022/04/24 06:30:56;;;;;;;26.87;16.60;;;;;;;13.08;90.84;99372.50;4501965;31;20110;-68
2022/04/24 06:33:24;;;;;;;30.85;18.30;;;;;;;13.02;91.85;99378.00;4501797;31;20463;-68
2022/04/24 06:35:51;;;;;;;30.37;18.27;;;;;;;13.22;90.54;99383.41;4501989;31;20096;-68
2022/04/24 06:38:22;;;;;;;27.87;17.87;;;;;;;13.52;89.49;99381.34;4501886;31;20878;-68
2022/04/24 06:40:49;;;;;;;24.05;17.23;;;;;;;13.83;87.18;99370.38;4501815;31;20800;-68
2022/04/24 06:43:16;;;;;;;24.83;17.27;;;;;;;13.95;86.78;99358.41;4501925;31;20156;-68
2022/04/24 06:45:44;;;;;;;26.58;18.40;;;;;;;14.15;84.96;99372.62;4501981;31;20431;-68
2022/04/24 06:48:15;;;;;;;27.50;16.83;;;;;;;14.15;85.99;99367.31;4487023;31;20182;-68
2022/04/24 06:50:47;;;;;;;27.10;17.15;;;;;;;14.29;85.66;99368.44;4501866;31;20480;-68
2022/04/24 06:53:18;;;;;;;27.50;16.20;;;;;;;14.43;84.22;99366.97;4501905;31;20479;-68
2022/04/24 06:55:47;;;;;;;26.30;17.08;;;;;;;14.45;84.51;99362.44;4501960;31;20146;-68
2022/04/24 06:58:16;;;;;;;28.62;18.10;;;;;;;14.43;84.13;99353.72;4501613;31;20509;-68
2022/04/24 07:00:45;;;;;;;30.10;18.70;;;;;;;14.44;84.19;99344.84;4501106;31;20104;-68
2022/04/24 07:03:32;;;;;;;33.95;17.92;;;;;;;14.43;84.74;99349.28;4508919;31;20502;-68
2022/04/24 07:06:00;;;;;;;25.98;16.35;;;;;;;14.49;83.81;99349.03;4514768;31;20094;-68
2022/04/24 07:08:29;;;;;;;25.88;17.48;;;;;;;14.54;83.60;99344.41;4509388;31;20550;-68
2022/04/24 07:10:57;;;;;;;28.25;17.75;;;;;;;14.66;83.12;99352.72;4502044;31;20181;-68
2022/04/24 07:13:24;;;;;;;25.75;17.17;;;;;;;14.65;82.69;99353.66;4501615;31;20092;-68
2022/04/24 07:15:54;;;;;;;27.80;17.25;;;;;;;14.79;81.82;99346.78;4514401;31;20146;-68
2022/04/24 07:18:22;;;;;;;25.33;16.95;;;;;;;14.50;83.09;99344.59;4516948;31;20103;-68
2022/04/24 07:20:49;;;;;;;30.10;17.75;;;;;;;14.44;82.35;99336.88;4516493;31;20091;-68
2022/04/24 07:23:16;;;;;;;25.52;16.65;;;;;;;14.61;84.01;99336.19;4516099;31;20467;-68
2022/04/24 07:25:44;;;;;;;23.30;15.98;;;;;;;15.02;81.49;99343.09;4516820;31;20091;-68
2022/04/24 07:28:15;;;;;;;27.60;16.65;;;;;;;15.11;80.59;99351.53;4517177;31;20096;-68
2022/04/24 07:30:43;;;;;;;28.92;17.45;;;;;;;15.09;81.64;99346.31;4517488;31;20387;-68
2022/04/24 07:33:11;;;;;;;24.77;16.35;;;;;;;14.92;81.62;99339.16;4516597;31;20475;-68
2022/04/24 07:35:40;;;;;;;27.10;16.35;;;;;;;15.37;82.43;99332.59;4515878;31;20154;-68
2022/04/24 07:38:08;;;;;;;20.35;13.98;;;;;;;15.58;80.57;99332.47;4515802;31;20103;-68
2022/04/24 07:40:39;;;;;;;23.75;16.20;;;;;;;15.90;78.75;99325.56;4515820;31;20447;-68
2022/04/24 07:43:08;;;;;;;22.55;15.30;;;;;;;16.16;77.14;99319.81;4515961;31;20092;-68
2022/04/24 07:45:37;;;;;;;20.75;15.18;;;;;;;16.36;76.45;99323.22;4516303;31;20122;-68
2022/04/24 07:48:07;;;;;;;23.40;15.43;;;;;;;16.65;75.10;99334.97;4517582;31;20092;-68
2022/04/24 07:50:36;;;;;;;23.25;16.52;;;;;;;16.82;74.12;99342.94;4517698;31;20450;-68
2022/04/24 07:53:05;;;;;;;24.00;16.83;;;;;;;16.83;74.89;99334.03;4517286;31;20143;-68
2022/04/24 07:55:32;;;;;;;25.33;16.55;;;;;;;16.93;74.33;99331.72;4517372;31;20163;-68
2022/04/24 07:58:00;;;;;;;23.75;16.45;;;;;;;16.84;75.54;99341.03;4517562;31;20107;-68
2022/04/24 08:00:30;;;;;;;28.58;15.73;;;;;;;16.91;74.22;99357.53;4517152;31;20142;-68
2022/04/24 08:03:01;;;;;;;24.40;15.25;;;;;;;16.68;75.91;99330.34;4517296;31;20084;-68
2022/04/24 08:05:31;;;;;;;19.55;14.05;;;;;;;16.96;75.48;99335.06;4517628;31;20118;-68
2022/04/24 08:08:01;;;;;;;23.65;15.82;;;;;;;17.39;73.15;99310.53;4517312;31;20331;-68
2022/04/24 08:10:31;;;;;;;20.60;13.93;;;;;;;17.38;71.68;99308.78;4517532;31;20140;-68
2022/04/24 08:12:58;;;;;;;24.35;15.68;;;;;;;17.51;71.30;99308.94;4517278;31;20092;-68
2022/04/24 08:15:26;;;;;;;23.17;15.65;;;;;;;17.87;71.21;99313.97;4517199;31;20126;-68
2022/04/24 08:17:53;;;;;;;23.33;16.08;;;;;;;18.14;68.98;99304.34;4512881;31;20459;-68
2022/04/24 08:20:20;;;;;;;23.30;14.40;;;;;;;18.54;68.41;99304.56;4508681;31;20383;-68
2022/04/24 08:22:52;;;;;;;23.12;15.25;;;;;;;18.63;66.39;99300.47;4508002;31;20099;-68
2022/04/24 08:25:23;;;;;;;21.05;13.73;;;;;;;18.74;66.37;99286.50;4508398;31;20159;-68
2022/04/24 08:27:52;;;;;;;22.48;15.40;;;;;;;18.91;65.68;99285.44;4500577;31;20107;-68
2022/04/24 08:30:20;;;;;;;19.85;13.60;;;;;;;19.07;64.25;99289.66;4500598;31;20566;-69
2022/04/24 08:32:48;;;;;;;21.37;14.87;;;;;;;19.45;63.77;99288.16;4500480;31;20122;-69
2022/04/24 08:35:17;;;;;;;21.70;14.30;;;;;;;19.80;63.62;99284.00;4499103;31;20440;-69
2022/04/24 08:37:45;;;;;;;18.87;12.75;;;;;;;20.09;61.98;99289.19;4500522;31;20131;-69
2022/04/24 08:40:14;;;;;;;22.73;12.88;;;;;;;20.11;58.89;99278.41;4499922;31;20469;-69
2022/04/24 08:42:42;;;;;;;19.10;12.25;;;;;;;19.72;59.81;99274.81;4500741;31;20096;-68
2022/04/24 08:45:12;;;;;;;18.45;13.38;;;;;;;20.09;59.46;99277.63;4500821;31;20180;-68
2022/04/24 08:47:40;;;;;;;17.52;12.00;;;;;;;19.86;58.67;99265.81;4500769;31;20107;-68
2022/04/24 08:50:08;;;;;;;15.32;10.60;;;;;;;19.78;59.32;99263.69;4500756;31;20299;-68
2022/04/24 08:52:34;;;;;;;16.27;10.80;;;;;;;19.45;61.65;99266.78;4500651;31;20159;-68
2022/04/24 08:55:03;;;;;;;19.02;10.73;;;;;;;19.59;61.12;99264.88;4500744;31;20462;-69
2022/04/24 08:57:30;;;;;;;17.58;8.13;;;;;;;19.94;58.66;99251.00;4500682;31;20174;-68
2022/04/24 08:59:59;;;;;;;10.55;7.30;;;;;;;19.87;57.47;99243.50;4500755;31;20091;-68
2022/04/24 09:02:48;;;;;;;10.48;4.53;;;;;;;19.78;56.62;99243.16;4500558;31;20175;-68
2022/04/24 09:05:15;;;;;;;9.23;3.90;;;;;;;20.32;52.56;99252.84;4500598;31;20100;-68
2022/04/24 09:07:43;;;;;;;7.15;4.07;;;;;;;20.49;52.17;99236.44;4500563;31;20779;-68
2022/04/24 09:10:31;;;;;;;11.15;4.40;;;;;;;19.84;53.47;99247.22;4500622;31;20076;-68
2022/04/24 09:12:59;;;;;;;5.95;3.87;;;;;;;20.04;53.11;99241.38;4500414;31;20132;-68
2022/04/24 09:15:28;;;;;;;7.35;3.87;;;;;;;19.95;54.36;99241.16;4500538;31;20092;-68
2022/04/24 09:18:00;;;;;;;4.57;3.15;;;;;;;20.05;52.29;99235.06;4500382;31;20515;-68
2022/04/24 09:20:41;;;;;;;2.92;2.60;;;;;;;19.90;53.44;99233.44;4500374;31;20114;-68
2022/04/24 09:23:08;;;;;;;17.02;3.15;;;;;;;20.25;50.29;99246.22;4500265;31;20512;-68
2022/04/24 09:25:40;;;;;;;5.18;2.62;;;;;;;20.09;51.05;99243.72;4500169;31;20118;-68
2022/04/24 09:28:07;;;;;;;6.57;2.40;;;;;;;20.35;50.86;99246.37;4500181;31;20095;-68
2022/04/24 09:30:36;;;;;;;5.28;2.00;;;;;;;20.77;49.63;99247.88;4500146;31;20118;-68
2022/04/24 09:33:07;;;;;;;3.15;1.58;;;;;;;20.96;49.91;99236.69;4499993;31;20461;-68
2022/04/24 09:35:40;;;;;;;6.20;1.80;;;;;;;20.55;49.19;99231.66;4500223;31;20111;-68
2022/04/24 09:38:14;;;;;;;1.37;1.10;;;;;;;20.51;49.40;99233.69;4500172;31;20172;-68
2022/04/24 09:40:49;;;;;;;1.90;1.40;;;;;;;20.13;47.34;99241.69;4499994;31;20072;-68
2022/04/24 09:43:19;;;;;;;1.98;1.05;;;;;;;19.83;48.59;99233.97;4500051;31;20175;-68
2022/04/24 09:45:48;;;;;;;3.75;1.33;;;;;;;19.74;50.01;99247.00;4500335;31;20167;-68
2022/04/24 09:48:21;;;;;;;9.43;1.87;;;;;;;19.62;50.50;99231.78;4503093;31;20134;-68
2022/04/24 09:50:50;;;;;;;3.78;1.92;;;;;;;19.45;49.55;99246.25;4503235;31;20128;-68
2022/04/24 09:53:21;;;;;;;8.88;1.52;;;;;;;19.24;50.88;99253.87;4503180;31;20092;-68
2022/04/24 09:55:49;;;;;;;5.43;1.45;;;;;;;19.32;50.45;99256.88;4503149;31;20084;-68
2022/04/24 09:58:18;;;;;;;6.93;1.00;;;;;;;18.99;47.77;99251.94;4503204;31;20122;-68
2022/04/24 10:00:45;;;;;;;5.95;1.33;;;;;;;18.58;48.03;99251.88;4503056;31;20087;-68
2022/04/24 10:03:16;;;;;;;4.65;1.08;;;;;;;18.75;48.87;99250.84;4503105;31;20164;-68
2022/04/24 10:05:47;;;;;;;1.85;0.80;;;;;;;18.77;47.44;99268.47;4502580;31;20239;-68
2022/04/24 10:08:17;;;;;;;3.05;0.70;;;;;;;18.71;48.13;99255.50;4502656;31;20087;-68
2022/04/24 10:10:50;;;;;;;4.47;1.00;;;;;;;18.49;49.00;99290.66;4502711;31;20413;-68
2022/04/24 10:13:21;;;;;;;5.37;1.52;;;;;;;18.40;49.29;99277.87;4502854;31;20103;-68
2022/04/24 10:16:18;;;;;;;10.80;0.98;;;;;;;18.29;47.92;99293.69;4502951;31;20103;-68
2022/04/24 10:19:24;;;;;;;4.18;0.60;;;;;;;18.14;49.82;99274.16;4502835;31;20484;-68
2022/04/24 10:22:02;;;;;;;2.30;0.57;;;;;;;17.99;51.92;99291.94;4474031;31;20103;-68
2022/04/24 10:24:41;;;;;;;5.30;0.90;;;;;;;17.62;53.84;99286.06;4503093;31;20087;-68
2022/04/24 10:27:11;;;;;;;4.12;0.90;;;;;;;17.75;54.30;99266.72;4503046;31;20788;-68
2022/04/24 10:29:52;;;;;;;2.92;0.80;;;;;;;17.33;62.01;99269.13;4502760;31;20435;-68
2022/04/24 10:32:32;;;;;;;3.25;0.62;;;;;;;17.31;56.05;99280.78;4502582;31;20203;-68
2022/04/24 10:35:00;;;;;;;4.22;0.90;;;;;;;17.26;56.10;99283.72;4502942;31;20596;-68
2022/04/24 10:37:32;;;;;;;5.97;1.02;;;;;;;17.17;56.36;99279.78;4502701;31;20099;-68
2022/04/24 10:40:00;;;;;;;2.17;0.50;;;;;;;17.15;56.95;99268.38;4502865;31;20080;-68
2022/04/24 10:42:30;;;;;;;2.60;0.80;;;;;;;17.07;57.29;99265.28;4502722;31;20087;-68
2022/04/24 10:45:12;;;;;;;4.65;1.17;;;;;;;17.11;58.00;99263.31;4502774;31;20099;-68
2022/04/24 10:47:48;;;;;;;4.62;1.20;;;;;;;17.16;58.35;99263.88;4502457;31;20176;-68
2022/04/24 10:50:20;;;;;;;0.95;0.50;;;;;;;17.20;58.10;99252.13;4501666;31;20792;-68
2022/04/24 10:52:54;;;;;;;1.92;0.60;;;;;;;17.31;57.65;99252.34;4502567;31;20528;-68
2022/04/24 10:55:26;;;;;;;5.57;0.68;;;;;;;17.25;57.23;99254.53;4502703;31;20072;-68
2022/04/24 10:58:00;;;;;;;1.15;0.70;;;;;;;17.15;57.38;99247.06;4501421;31;20592;-68
2022/04/24 11:00:32;;;;;;;4.22;0.60;;;;;;;17.04;56.77;99260.13;4501958;31;20791;-68
2022/04/24 11:03:15;;;;;;;1.30;0.70;;;;;;;17.01;57.26;99244.34;4500901;31;20087;-68
2022/04/24 11:05:45;;;;;;;1.70;0.52;;;;;;;17.05;56.91;99263.66;4499860;31;20549;-68
2022/04/24 11:08:18;;;;;;;1.12;0.57;;;;;;;16.90;58.39;99265.38;4499527;31;20118;-68
2022/04/24 11:10:50;;;;;;;1.95;0.60;;;;;;;16.67;58.27;99261.28;4499795;31;20095;-68
2022/04/24 11:13:19;;;;;;;0.88;0.52;;;;;;;16.54;59.55;99278.81;4499306;31;20095;-68
2022/04/24 11:15:48;;;;;;;1.62;0.60;;;;;;;16.45;61.12;99270.41;4498895;31;20204;-68
2022/04/24 11:18:24;;;;;;;1.48;0.75;;;;;;;16.46;60.62;99271.28;4498193;31;20203;-68
2022/04/24 11:20:58;;;;;;;0.80;0.70;;;;;;;16.49;61.49;99271.09;4498202;31;20100;-68
2022/04/24 11:23:28;;;;;;;6.95;1.12;;;;;;;16.60;61.87;99262.56;4496949;31;20184;-68
2022/04/24 11:25:56;;;;;;;6.72;0.80;;;;;;;16.61;62.00;99272.25;4496957;31;20424;-68
2022/04/24 11:28:34;;;;;;;2.85;0.85;;;;;;;16.66;61.53;99273.72;4497020;31;20096;-68